Ana Sayfa
METAR-TAF:

METAR-TAF

Havaalanları :

A.L. Mangham Jr. Regional Airport

Nacogdoches, Teksas, Amerika Birleşik Devletleri

Enlem: 31-35N, Boylam: 094-43W, yükseklik: 108 m

Güncel hava durumu gözlemi

Rapor saat 13:56 UTC de 15 dakika önce yapıldı.
Rüzgar doğu/güneydoğudan 5 kt
Sıcaklık 8°C
Nem 100%
Basınç 1020 hPa
200 ft yükseklikte çok bulutlu
sis

METAR: KOCH 081356Z AUTO 12005KT M1/4SM FG OVC002 08/08 A3012 RMK AO2 SLP206 T00830083 RVRNO PNO $

Saat: 08:11 (14:11 UTC)


TAF: eksik

4.000'den fazla havaalanı için hava durumu gözlemleri ve tahminleri (METAR ve TAF raporları).

Kullanılabilir istasyonlar harita üzerinde sarı ve kırmızı noktalarla gösterilir.

İstasyonun adını görmek için fareyi noktanın üzerinde gezdirin.

Sonrasında hava gözlem ve tahminlerini görmek için tıklayın.

Haritayı değiştirmek için: yaklaştırmak için siyah artı işaretli yeşil düğmeye ve uzaklaştırmak için de eksi işaretli düğmeye hızla tıklayın; bitişik haritalar için yeşil okları kullanın.


METAR-TAF: